createdAt,value
2018-04-17T00:00:12.630Z,25.60
2018-04-17T00:02:52.624Z,23.47
2018-04-17T00:05:30.703Z,25.27
2018-04-17T00:08:08.404Z,21.03
2018-04-17T00:10:47.646Z,19.33
2018-04-17T00:13:26.401Z,21.97
2018-04-17T00:16:04.256Z,20.87
2018-04-17T00:18:43.236Z,22.53
2018-04-17T00:21:22.074Z,23.53
2018-04-17T00:23:59.732Z,22.73
2018-04-17T00:26:38.062Z,21.50
2018-04-17T00:29:17.991Z,20.63
2018-04-17T00:31:56.076Z,22.97
2018-04-17T00:34:35.428Z,28.03
2018-04-17T00:37:13.254Z,27.77
2018-04-17T00:39:51.818Z,26.83
2018-04-17T00:42:30.891Z,27.20
2018-04-17T00:45:09.913Z,28.93
2018-04-17T00:47:47.932Z,29.37
2018-04-17T00:50:27.329Z,30.20
2018-04-17T00:53:14.197Z,25.47
2018-04-17T00:55:52.503Z,25.53
2018-04-17T00:58:31.535Z,21.87
2018-04-17T01:01:10.097Z,22.33
2018-04-17T01:03:48.161Z,24.17
2018-04-17T01:06:26.239Z,28.37
2018-04-17T01:09:08.523Z,29.93
2018-04-17T01:11:46.554Z,33.50
2018-04-17T01:14:24.905Z,28.63
2018-04-17T01:17:02.737Z,27.33
2018-04-17T01:19:40.410Z,26.83
2018-04-17T01:22:19.713Z,33.00
2018-04-17T01:24:57.531Z,31.87
2018-04-17T01:27:36.559Z,33.43
2018-04-17T01:30:14.641Z,33.97
2018-04-17T01:32:53.388Z,32.00
2018-04-17T01:35:32.080Z,29.53
2018-04-17T01:38:10.361Z,28.87
2018-04-17T01:40:48.948Z,32.67
2018-04-17T01:43:26.788Z,26.00
2018-04-17T01:46:05.674Z,28.93
2018-04-17T01:48:43.681Z,25.90
2018-04-17T01:51:21.624Z,27.63
2018-04-17T01:54:01.680Z,26.20
2018-04-17T01:56:39.575Z,27.50
2018-04-17T01:59:17.768Z,21.63
2018-04-17T02:01:57.263Z,24.00
2018-04-17T02:04:35.359Z,22.83
2018-04-17T02:07:14.542Z,23.50
2018-04-17T02:09:54.022Z,23.00
2018-04-17T02:12:33.108Z,22.33
2018-04-17T02:15:12.079Z,20.60
2018-04-17T02:17:50.860Z,22.77
2018-04-17T02:20:30.142Z,20.57
2018-04-17T02:23:08.622Z,22.33
2018-04-17T02:25:49.113Z,22.00
2018-04-17T02:28:28.145Z,24.30
2018-04-17T02:31:06.361Z,26.67
2018-04-17T02:33:46.485Z,23.30
2018-04-17T02:36:25.176Z,27.07
2018-04-17T02:39:03.181Z,26.23
2018-04-17T02:41:41.215Z,21.50
2018-04-17T02:44:19.998Z,21.87
2018-04-17T02:46:58.945Z,26.53
2018-04-17T02:49:36.968Z,21.93
2018-04-17T02:52:15.542Z,21.50
2018-04-17T02:54:54.629Z,26.60
2018-04-17T02:57:33.009Z,26.23
2018-04-17T03:00:10.805Z,70.60
2018-04-17T03:02:51.664Z,33.77
2018-04-17T03:05:29.942Z,29.27
2018-04-17T03:08:07.998Z,48.57
2018-04-17T03:10:47.173Z,101.13
2018-04-17T03:13:25.441Z,47.90
2018-04-17T03:16:04.465Z,111.53
2018-04-17T03:18:42.779Z,71.97
2018-04-17T03:21:20.876Z,106.53
2018-04-17T03:23:59.713Z,51.30
2018-04-17T03:26:38.087Z,23.37
2018-04-17T03:29:17.666Z,23.63
2018-04-17T03:31:55.800Z,53.00
2018-04-17T03:34:36.665Z,46.10
2018-04-17T03:37:14.547Z,42.27
2018-04-17T03:39:53.695Z,53.83
2018-04-17T03:42:34.559Z,49.93
2018-04-17T03:45:13.459Z,43.03
2018-04-17T03:47:52.419Z,56.77
2018-04-17T03:50:30.994Z,53.20
2018-04-17T03:53:08.883Z,34.27
2018-04-17T03:55:47.207Z,32.87
2018-04-17T03:58:25.409Z,32.83
2018-04-17T04:01:03.691Z,42.90
2018-04-17T04:03:41.743Z,73.03
2018-04-17T04:06:21.655Z,60.67
2018-04-17T04:08:59.980Z,64.40
2018-04-17T04:11:42.816Z,77.97
2018-04-17T04:14:21.566Z,92.27
2018-04-17T04:18:18.275Z,117.20
2018-04-17T04:22:15.320Z,79.57
2018-04-17T04:25:16.969Z,39.83
2018-04-17T04:27:56.762Z,30.17
2018-04-17T04:30:44.570Z,20.20
2018-04-17T04:33:22.711Z,19.80
2018-04-17T04:36:03.257Z,19.33
2018-04-17T04:38:43.597Z,20.23
2018-04-17T04:41:23.708Z,18.97
2018-04-17T04:44:02.564Z,19.53
2018-04-17T04:46:46.211Z,21.07
2018-04-17T04:49:24.955Z,24.83
2018-04-17T04:52:03.945Z,27.43
2018-04-17T04:54:46.606Z,29.47
2018-04-17T04:57:24.518Z,33.23
2018-04-17T05:00:05.148Z,32.47
2018-04-17T05:02:46.104Z,31.33
2018-04-17T05:05:25.106Z,32.00
2018-04-17T05:08:07.207Z,32.27
2018-04-17T05:10:45.134Z,31.73
2018-04-17T05:13:25.983Z,29.00
2018-04-17T05:16:06.265Z,28.10
2018-04-17T05:18:43.997Z,28.13
2018-04-17T05:21:23.260Z,28.13
2018-04-17T05:24:01.184Z,27.57
2018-04-17T05:26:39.450Z,25.53
2018-04-17T05:29:17.167Z,24.63
2018-04-17T05:31:54.934Z,24.03
2018-04-17T05:34:32.574Z,23.33
2018-04-17T05:37:12.510Z,24.70
2018-04-17T05:39:51.445Z,22.47
2018-04-17T05:42:29.931Z,21.30
2018-04-17T05:45:09.964Z,25.60
2018-04-17T05:47:49.398Z,24.30
2018-04-17T05:50:28.531Z,25.63
2018-04-17T05:53:09.409Z,25.97
2018-04-17T05:55:47.094Z,26.13
2018-04-17T05:58:25.023Z,39.03
2018-04-17T06:01:04.124Z,23.90
2018-04-17T06:03:41.800Z,26.60
2018-04-17T06:06:19.423Z,25.13
2018-04-17T06:08:59.055Z,23.90
2018-04-17T06:11:36.728Z,25.07
2018-04-17T06:14:14.221Z,29.67
2018-04-17T06:16:54.718Z,25.83
2018-04-17T06:19:34.991Z,26.43
2018-04-17T06:22:14.057Z,29.03
2018-04-17T06:24:55.500Z,31.23
2018-04-17T06:27:36.629Z,24.23
2018-04-17T06:30:16.755Z,26.33
2018-04-17T06:32:55.228Z,28.17
2018-04-17T06:35:37.834Z,28.10
2018-04-17T06:38:16.105Z,27.23
2018-04-17T06:41:00.797Z,25.63
2018-04-17T06:43:39.402Z,23.80
2018-04-17T06:46:17.102Z,26.70
2018-04-17T06:48:57.485Z,26.17
2018-04-17T06:51:36.615Z,24.67
2018-04-17T06:54:15.895Z,23.13
2018-04-17T06:56:56.455Z,28.43
2018-04-17T06:59:35.723Z,24.77
2018-04-17T07:02:14.713Z,26.07
2018-04-17T07:04:54.101Z,27.30
2018-04-17T07:07:31.792Z,27.27
2018-04-17T07:13:00.330Z,26.60
2018-04-17T07:15:40.260Z,30.13
2018-04-17T07:18:22.224Z,31.07
2018-04-17T07:21:02.045Z,32.03
2018-04-17T07:23:43.945Z,33.20
2018-04-17T07:26:23.454Z,31.20
2018-04-17T07:29:04.696Z,35.07
2018-04-17T07:31:47.686Z,34.73
2018-04-17T07:34:25.516Z,31.30
2018-04-17T07:37:05.198Z,37.73
2018-04-17T07:39:43.563Z,39.63
2018-04-17T07:42:23.022Z,43.60
2018-04-17T07:45:03.360Z,53.10
2018-04-17T07:47:50.283Z,53.70
2018-04-17T07:50:29.062Z,58.57
2018-04-17T07:53:07.918Z,53.03
2018-04-17T07:55:47.827Z,50.50
2018-04-17T07:58:25.670Z,55.20
2018-04-17T08:01:05.493Z,54.23
2018-04-17T08:03:48.763Z,57.27
2018-04-17T08:06:26.215Z,69.63
2018-04-17T08:09:06.217Z,68.10
2018-04-17T08:11:46.916Z,68.70
2018-04-17T08:14:26.031Z,62.30
2018-04-17T08:17:07.196Z,63.60
2018-04-17T08:19:48.058Z,67.73
2018-04-17T08:22:27.264Z,62.70
2018-04-17T08:25:10.237Z,65.67
2018-04-17T08:27:51.042Z,64.23
2018-04-17T08:30:29.068Z,64.03
2018-04-17T08:33:09.879Z,62.73
2018-04-17T08:35:50.365Z,60.70
2018-04-17T08:38:31.326Z,54.73
2018-04-17T08:41:12.050Z,67.33
2018-04-17T08:43:50.689Z,59.03
2018-04-17T08:46:33.944Z,56.80
2018-04-17T08:49:11.868Z,60.33
2018-04-17T08:51:51.421Z,61.60
2018-04-17T08:54:32.742Z,59.93
2018-04-17T08:57:12.673Z,55.90
2018-04-17T08:59:53.564Z,57.80
2018-04-17T09:02:32.939Z,58.60
2018-04-17T09:05:13.060Z,54.87
2018-04-17T09:07:58.108Z,52.03
2018-04-17T09:10:35.806Z,56.03
2018-04-17T09:13:18.220Z,54.00
2018-04-17T09:15:57.005Z,56.63
2018-04-17T09:21:22.592Z,55.03
2018-04-17T09:24:00.363Z,54.23
2018-04-17T09:26:41.006Z,54.47
2018-04-17T09:29:18.955Z,56.57
2018-04-17T09:32:02.546Z,51.83
2018-04-17T09:34:41.480Z,55.70
2018-04-17T09:37:19.518Z,51.37
2018-04-17T09:40:00.767Z,51.47
2018-04-17T09:42:39.177Z,52.07
2018-04-17T09:45:24.383Z,54.53
2018-04-17T09:48:03.226Z,51.77
2018-04-17T09:50:42.966Z,52.87
2018-04-17T09:53:23.744Z,56.43
2018-04-17T09:56:01.735Z,49.27
2018-04-17T09:58:40.624Z,54.87
2018-04-17T10:01:24.109Z,52.60
2018-04-17T10:04:05.294Z,57.67
2018-04-17T10:06:43.554Z,51.03
2018-04-17T10:09:25.790Z,47.77
2018-04-17T10:12:04.736Z,51.60
2018-04-17T10:14:44.366Z,48.10
2018-04-17T10:17:26.832Z,47.53
2018-04-17T10:20:05.131Z,44.83
2018-04-17T10:22:46.135Z,45.17
2018-04-17T10:25:24.850Z,43.60
2018-04-17T10:28:09.648Z,46.13
2018-04-17T10:30:47.397Z,52.60
2018-04-17T10:33:25.302Z,48.57
2018-04-17T10:36:08.244Z,46.97
2018-04-17T10:38:46.000Z,45.47
2018-04-17T10:41:24.663Z,47.50
2018-04-17T10:44:09.850Z,48.07
2018-04-17T10:46:48.545Z,45.53
2018-04-17T10:49:28.368Z,49.53
2018-04-17T10:52:09.358Z,51.20
2018-04-17T10:54:49.153Z,51.07
2018-04-17T10:57:33.340Z,48.47
2018-04-17T11:00:11.540Z,46.93
2018-04-17T11:02:52.667Z,51.40
2018-04-17T11:05:32.527Z,48.50
2018-04-17T11:08:10.524Z,47.07
2018-04-17T11:10:52.755Z,45.17
2018-04-17T11:13:32.988Z,49.43
2018-04-17T11:16:11.274Z,49.17
2018-04-17T11:18:54.108Z,50.97
2018-04-17T11:21:35.327Z,53.23
2018-04-17T11:24:16.381Z,50.87
2018-04-17T11:26:54.419Z,49.87
2018-04-17T11:29:35.929Z,53.40
2018-04-17T11:32:15.162Z,47.27
2018-04-17T11:34:53.147Z,49.23
2018-04-17T11:37:35.489Z,48.37
2018-04-17T11:40:14.344Z,51.37
2018-04-17T11:42:54.780Z,51.47
2018-04-17T11:45:38.705Z,50.73
2018-04-17T11:48:20.747Z,42.57
2018-04-17T11:50:59.032Z,47.03
2018-04-17T11:53:39.678Z,47.03
2018-04-17T11:56:17.545Z,43.90
2018-04-17T11:59:05.084Z,45.20
2018-04-17T12:01:51.044Z,45.37
2018-04-17T12:04:37.299Z,43.83
2018-04-17T12:07:18.352Z,40.07
2018-04-17T12:09:59.509Z,41.53
2018-04-17T12:12:39.769Z,40.50
2018-04-17T12:15:20.562Z,44.60
2018-04-17T12:17:59.483Z,41.67
2018-04-17T12:20:41.884Z,42.83
2018-04-17T12:23:20.548Z,42.60
2018-04-17T12:26:00.105Z,38.90
2018-04-17T12:28:42.681Z,40.80
2018-04-17T12:31:21.927Z,43.10
2018-04-17T12:34:00.901Z,40.00
2018-04-17T12:36:44.032Z,48.83
2018-04-17T12:39:22.590Z,39.67
2018-04-17T12:42:09.454Z,38.97
2018-04-17T12:44:59.071Z,39.60
2018-04-17T12:47:40.527Z,38.90
2018-04-17T12:50:22.051Z,36.33
2018-04-17T12:53:09.444Z,43.00
2018-04-17T12:55:48.275Z,36.77
2018-04-17T12:58:26.291Z,38.40
2018-04-17T13:01:08.669Z,42.73
2018-04-17T13:04:00.996Z,33.83
2018-04-17T13:06:50.098Z,40.43
2018-04-17T13:09:28.290Z,34.63
2018-04-17T13:12:08.436Z,36.90
2018-04-17T13:14:49.332Z,34.63
2018-04-17T13:17:28.361Z,34.37
2018-04-17T13:20:12.752Z,38.40
2018-04-17T13:22:54.075Z,38.83
2018-04-17T13:25:47.430Z,34.00
2018-04-17T13:28:26.967Z,38.33
2018-04-17T13:31:06.256Z,38.87
2018-04-17T13:33:54.116Z,36.13
2018-04-17T13:36:32.342Z,38.73
2018-04-17T13:39:12.009Z,37.67
2018-04-17T13:41:56.711Z,39.03
2018-04-17T13:44:47.696Z,40.33
2018-04-17T13:47:29.331Z,31.90
2018-04-17T13:50:11.090Z,39.07
2018-04-17T13:52:49.910Z,35.30
2018-04-17T13:55:29.768Z,37.63
2018-04-17T13:58:17.206Z,37.90
2018-04-17T14:00:54.927Z,33.03
2018-04-17T14:03:37.700Z,41.87
2018-04-17T14:06:16.121Z,31.87
2018-04-17T14:08:56.401Z,34.60
2018-04-17T14:11:34.237Z,30.07
2018-04-17T14:14:13.095Z,29.83
2018-04-17T14:16:56.643Z,32.13
2018-04-17T14:19:36.015Z,32.23
2018-04-17T14:22:14.310Z,29.57
2018-04-17T14:25:04.512Z,33.23
2018-04-17T14:27:53.931Z,30.43
2018-04-17T14:30:35.376Z,41.40
2018-04-17T14:33:15.378Z,33.73
2018-04-17T14:35:54.969Z,30.70
2018-04-17T14:38:35.172Z,32.03
2018-04-17T15:26:54.123Z,28.23
2018-04-17T15:29:32.053Z,25.97
2018-04-17T15:32:16.083Z,29.87
2018-04-17T15:34:56.359Z,28.77
2018-04-17T15:37:34.087Z,30.37
2018-04-17T15:40:16.125Z,32.60
2018-04-17T15:42:55.914Z,31.77
2018-04-17T15:45:42.107Z,28.83
2018-04-17T15:48:23.269Z,32.57
2018-04-17T15:51:02.796Z,33.00
2018-04-17T15:53:45.751Z,28.57
2018-04-17T15:56:23.611Z,32.10
2018-04-17T15:59:02.978Z,29.37
2018-04-17T16:01:48.501Z,30.23
2018-04-17T16:04:26.276Z,34.07
2018-04-17T16:07:04.550Z,31.03
2018-04-17T16:09:47.615Z,30.60
2018-04-17T16:12:27.441Z,33.07
2018-04-17T16:15:07.393Z,28.80
2018-04-17T16:17:47.248Z,36.07
2018-04-17T16:20:26.890Z,41.20
2018-04-17T16:23:09.291Z,38.53
2018-04-17T16:25:47.570Z,42.60
2018-04-17T16:28:26.757Z,38.53
2018-04-17T16:31:09.731Z,42.43
2018-04-17T16:33:48.510Z,41.87
2018-04-17T16:36:27.750Z,41.80
2018-04-17T16:39:07.106Z,43.00
2018-04-17T16:41:48.127Z,38.57
2018-04-17T16:44:28.595Z,41.67
2018-04-17T16:47:08.793Z,43.83
2018-04-17T16:49:48.340Z,43.00
2018-04-17T16:52:30.520Z,42.63
2018-04-17T16:55:10.759Z,42.27
2018-04-17T16:57:48.749Z,42.27
2018-04-17T17:00:28.446Z,36.93
2018-04-17T17:03:07.448Z,41.43
2018-04-17T17:05:46.765Z,43.13
2018-04-17T17:08:28.622Z,41.20
2018-04-17T17:11:08.612Z,43.43
2018-04-17T17:13:49.474Z,41.83
2018-04-17T17:16:30.580Z,45.70
2018-04-17T17:19:09.882Z,48.23
2018-04-17T17:21:50.847Z,44.73
2018-04-17T17:24:30.686Z,40.97
2018-04-17T17:27:13.239Z,42.57
2018-04-17T17:29:54.467Z,45.20
2018-04-17T17:32:35.883Z,45.50
2018-04-17T17:35:15.652Z,45.70
2018-04-17T17:37:55.283Z,49.07
2018-04-17T17:40:38.006Z,44.40
2018-04-17T17:43:18.005Z,50.63
2018-04-17T17:45:56.003Z,50.60
2018-04-17T17:48:38.890Z,53.23
2018-04-17T17:51:18.850Z,50.77
2018-04-17T17:53:58.373Z,50.17
2018-04-17T17:56:40.081Z,49.17
2018-04-17T17:59:18.097Z,48.97
2018-04-17T18:01:59.816Z,45.93
2018-04-17T18:04:38.744Z,47.17
2018-04-17T18:07:19.076Z,48.13
2018-04-17T18:10:00.562Z,49.37
2018-04-17T18:12:39.688Z,50.47
2018-04-17T18:15:22.212Z,53.63
2018-04-17T18:18:00.524Z,46.80
2018-04-17T18:20:40.424Z,58.13
2018-04-17T18:23:23.585Z,54.73
2018-04-17T18:26:01.541Z,49.43
2018-04-17T18:28:42.087Z,51.57
2018-04-17T18:31:23.258Z,52.40
2018-04-17T18:34:02.296Z,53.87
2018-04-17T18:36:43.904Z,55.77
2018-04-17T18:39:21.970Z,52.33
2018-04-17T18:42:00.607Z,54.47
2018-04-17T18:44:43.014Z,52.77
2018-04-17T18:47:22.682Z,53.97
2018-04-17T18:50:05.826Z,56.83
2018-04-17T18:52:44.553Z,53.27
2018-04-17T18:55:23.432Z,53.77
2018-04-17T18:58:04.675Z,54.00
2018-04-17T19:00:44.282Z,48.07
2018-04-17T19:03:22.064Z,56.07
2018-04-17T19:06:05.210Z,55.63
2018-04-17T19:08:45.342Z,52.73
2018-04-17T19:11:25.656Z,52.00
2018-04-17T19:14:04.722Z,51.03
2018-04-17T19:16:42.849Z,51.63
2018-04-17T19:19:20.854Z,49.70
2018-04-17T19:22:01.809Z,55.17
2018-04-17T19:24:40.673Z,52.80
2018-04-17T19:27:18.732Z,52.70
2018-04-17T19:30:01.359Z,55.10
2018-04-17T19:32:40.711Z,55.00
2018-04-17T19:35:20.230Z,55.03
2018-04-17T19:37:59.342Z,51.10
2018-04-17T19:40:37.913Z,50.33
2018-04-17T19:43:17.569Z,56.00
2018-04-17T19:45:56.045Z,56.53
2018-04-17T19:48:37.041Z,61.83
2018-04-17T19:51:14.840Z,53.83
2018-04-17T19:53:55.843Z,54.23
2018-04-17T19:56:34.600Z,59.10
2018-04-17T19:59:13.628Z,58.47
2018-04-17T20:01:54.533Z,51.07
2018-04-17T20:04:33.703Z,53.97
2018-04-17T20:07:12.480Z,55.97
2018-04-17T20:09:52.069Z,48.17
2018-04-17T20:12:31.315Z,52.80
2018-04-17T20:15:09.823Z,48.53
2018-04-17T20:17:48.923Z,53.13
2018-04-17T20:20:26.800Z,49.87
2018-04-17T20:23:05.861Z,52.87
2018-04-17T20:25:44.773Z,49.13
2018-04-17T20:28:23.272Z,55.10
2018-04-17T20:31:02.593Z,52.17
2018-04-17T20:33:41.811Z,54.27
2018-04-17T20:36:20.261Z,52.03
2018-04-17T20:38:59.278Z,48.57
2018-04-17T20:41:39.812Z,53.53
2018-04-17T20:44:18.210Z,58.57
2018-04-17T20:46:56.162Z,52.33
2018-04-17T20:49:36.427Z,50.97
2018-04-17T20:52:15.300Z,55.30
2018-04-17T20:54:54.331Z,51.60
2018-04-17T20:57:34.736Z,55.50
2018-04-17T21:00:15.106Z,49.60
2018-04-17T21:02:54.323Z,47.87
2018-04-17T21:05:33.090Z,52.30
2018-04-17T21:08:12.427Z,51.50
2018-04-17T21:10:51.276Z,56.87
2018-04-17T21:13:29.874Z,54.93
2018-04-17T21:16:08.307Z,51.80
2018-04-17T21:18:46.440Z,54.50
2018-04-17T21:21:26.602Z,51.17
2018-04-17T21:24:04.893Z,54.90
2018-04-17T21:26:43.115Z,52.60
2018-04-17T21:29:22.921Z,49.77
2018-04-17T21:32:00.854Z,51.70
2018-04-17T21:34:39.282Z,50.90
2018-04-17T21:37:17.801Z,46.10
2018-04-17T21:39:56.234Z,50.63
2018-04-17T21:42:34.542Z,53.13
2018-04-17T21:45:14.351Z,53.33
2018-04-17T21:47:53.858Z,53.73
2018-04-17T21:50:32.903Z,51.33
2018-04-17T21:53:11.526Z,54.27
2018-04-17T21:55:50.323Z,52.80
2018-04-17T21:58:28.506Z,54.40
2018-04-17T22:01:11.926Z,52.03
2018-04-17T22:03:50.759Z,55.47
2018-04-17T22:06:29.779Z,52.03
2018-04-17T22:09:12.597Z,52.57
2018-04-17T22:11:51.735Z,62.83
2018-04-17T22:14:30.777Z,55.97
2018-04-17T22:17:12.522Z,57.37
2018-04-17T22:19:51.465Z,55.20
2018-04-17T22:22:29.345Z,62.37
2018-04-17T22:25:13.573Z,52.50
2018-04-17T22:27:51.608Z,55.90
2018-04-17T22:30:29.788Z,61.43
2018-04-17T22:33:14.584Z,55.40
2018-04-17T22:35:53.466Z,52.50
2018-04-17T22:38:32.428Z,50.67
2018-04-17T22:41:14.262Z,51.87
2018-04-17T22:43:52.791Z,53.13
2018-04-17T22:46:32.908Z,51.50
2018-04-17T22:49:12.396Z,54.10
2018-04-17T22:51:51.067Z,49.03
2018-04-17T22:54:31.786Z,48.60
2018-04-17T22:57:11.543Z,47.30
2018-04-17T22:59:50.693Z,46.93
2018-04-17T23:02:29.893Z,48.07
2018-04-17T23:05:08.609Z,51.77
2018-04-17T23:07:48.781Z,48.90
2018-04-17T23:10:30.246Z,57.23
2018-04-17T23:13:09.205Z,48.53
2018-04-17T23:15:48.804Z,44.47
2018-04-17T23:18:27.656Z,53.93
2018-04-17T23:21:11.524Z,46.43
2018-04-17T23:23:50.328Z,48.97
2018-04-17T23:26:37.074Z,52.33
2018-04-17T23:29:16.786Z,50.93
2018-04-17T23:31:56.011Z,47.63
2018-04-17T23:34:37.228Z,44.77
2018-04-17T23:37:16.787Z,52.03
2018-04-17T23:40:00.344Z,50.67
2018-04-17T23:42:39.366Z,42.63
2018-04-17T23:45:17.634Z,48.27
2018-04-17T23:47:56.327Z,46.97
2018-04-17T23:50:35.220Z,50.63
2018-04-17T23:53:14.669Z,49.23
2018-04-17T23:55:53.029Z,48.07
2018-04-17T23:58:32.360Z,48.80
